createdAt,value
2023-02-25T00:00:00.876Z,74.72
2023-02-25T00:02:33.502Z,74.65
2023-02-25T00:05:07.259Z,74.98
2023-02-25T00:07:40.314Z,74.93
2023-02-25T00:10:15.623Z,74.94
2023-02-25T00:12:47.883Z,74.88
2023-02-25T00:15:20.328Z,74.99
2023-02-25T00:17:52.702Z,74.61
2023-02-25T00:20:24.897Z,74.59
2023-02-25T00:22:57.913Z,74.69
2023-02-25T00:25:30.075Z,74.96
2023-02-25T00:28:05.450Z,74.52
2023-02-25T00:30:39.412Z,74.62
2023-02-25T00:33:12.241Z,74.76
2023-02-25T00:35:44.534Z,75.11
2023-02-25T00:38:16.574Z,75.03
2023-02-25T00:40:51.305Z,74.91
2023-02-25T00:43:23.426Z,75.22
2023-02-25T00:45:55.593Z,74.91
2023-02-25T00:48:27.809Z,75.21
2023-02-25T00:51:08.042Z,75.05
2023-02-25T00:53:41.498Z,74.59
2023-02-25T00:56:16.844Z,74.65
2023-02-25T00:58:48.512Z,75.09
2023-02-25T01:01:23.285Z,74.96
2023-02-25T01:03:57.452Z,74.97
2023-02-25T01:06:32.734Z,74.87
2023-02-25T01:09:07.858Z,75.29
2023-02-25T01:11:40.106Z,74.90
2023-02-25T01:14:16.703Z,75.47
2023-02-25T01:16:50.231Z,75.48
2023-02-25T01:19:24.542Z,75.45
2023-02-25T01:21:58.611Z,75.32
2023-02-25T01:24:33.249Z,75.15
2023-02-25T01:27:06.935Z,75.22
2023-02-25T01:29:42.231Z,74.94
2023-02-25T01:32:15.981Z,75.02
2023-02-25T01:34:48.145Z,74.90
2023-02-25T01:37:20.372Z,75.14
2023-02-25T01:39:54.344Z,74.90
2023-02-25T01:42:26.534Z,75.28
2023-02-25T01:45:25.542Z,75.16
2023-02-25T01:48:02.870Z,75.39
2023-02-25T01:50:42.628Z,75.41
2023-02-25T01:53:15.705Z,75.35
2023-02-25T01:55:48.212Z,75.43
2023-02-25T01:58:21.105Z,75.25
2023-02-25T02:00:55.676Z,75.10
2023-02-25T02:03:33.287Z,75.19
2023-02-25T02:06:12.533Z,75.26
2023-02-25T02:08:47.581Z,75.12
2023-02-25T02:11:20.657Z,75.09
2023-02-25T02:13:57.857Z,74.90
2023-02-25T02:17:06.092Z,75.26
2023-02-25T02:20:01.045Z,75.31
2023-02-25T02:22:41.433Z,75.37
2023-02-25T02:25:58.250Z,75.44
2023-02-25T02:29:03.005Z,75.94
2023-02-25T02:31:54.307Z,75.55
2023-02-25T02:34:38.011Z,75.63
2023-02-25T02:37:23.214Z,75.61
2023-02-25T02:40:09.565Z,75.38
2023-02-25T02:42:48.708Z,75.46
2023-02-25T02:45:27.074Z,75.51
2023-02-25T02:48:03.805Z,75.12
2023-02-25T02:50:39.333Z,75.24
2023-02-25T02:53:15.665Z,75.13
2023-02-25T02:55:49.993Z,75.22
2023-02-25T02:58:27.067Z,75.42
2023-02-25T03:01:05.110Z,75.52
2023-02-25T03:03:41.917Z,75.49
2023-02-25T03:06:17.190Z,75.77
2023-02-25T03:08:56.203Z,75.61
2023-02-25T03:11:29.079Z,75.67
2023-02-25T03:14:02.538Z,75.65
2023-02-25T03:16:39.762Z,75.67
2023-02-25T03:19:17.385Z,75.63
2023-02-25T03:21:56.185Z,75.92
2023-02-25T03:24:34.192Z,75.59
2023-02-25T03:27:24.283Z,75.35
2023-02-25T03:30:05.087Z,75.34
2023-02-25T03:32:39.009Z,75.40
2023-02-25T03:35:14.383Z,75.46
2023-02-25T03:37:51.337Z,75.59
2023-02-25T03:40:25.667Z,75.66
2023-02-25T03:43:08.278Z,75.75
2023-02-25T03:45:42.637Z,76.13
2023-02-25T03:48:16.705Z,75.84
2023-02-25T03:50:54.337Z,75.93
2023-02-25T03:53:27.007Z,75.85
2023-02-25T03:56:05.541Z,75.99
2023-02-25T03:58:41.175Z,75.43
2023-02-25T04:01:17.284Z,75.39
2023-02-25T04:03:49.841Z,75.62
2023-02-25T04:06:24.956Z,75.82
2023-02-25T04:08:58.393Z,75.74
2023-02-25T04:11:30.582Z,75.71
2023-02-25T04:14:02.766Z,75.94
2023-02-25T04:16:34.951Z,75.73
2023-02-25T04:19:07.650Z,76.19
2023-02-25T04:21:40.946Z,76.13
2023-02-25T04:24:13.243Z,76.39
2023-02-25T04:26:45.365Z,76.26
2023-02-25T04:29:17.605Z,75.92
2023-02-25T04:31:50.052Z,75.87
2023-02-25T04:34:22.772Z,75.79
2023-02-25T04:36:54.971Z,75.49
2023-02-25T04:39:27.225Z,75.92
2023-02-25T04:41:59.778Z,75.94
2023-02-25T04:44:32.314Z,75.65
2023-02-25T04:47:04.773Z,75.86
2023-02-25T04:49:45.293Z,76.04
2023-02-25T04:52:18.116Z,76.08
2023-02-25T04:54:50.566Z,75.89
2023-02-25T04:57:22.877Z,75.82
2023-02-25T04:59:55.323Z,76.01
2023-02-25T05:02:27.595Z,75.98
2023-02-25T05:04:59.774Z,75.98
2023-02-25T05:07:32.041Z,75.95
2023-02-25T05:10:05.050Z,75.88
2023-02-25T05:12:37.448Z,76.04
2023-02-25T05:15:13.041Z,75.83
2023-02-25T05:17:45.199Z,75.89
2023-02-25T05:20:17.267Z,76.02
2023-02-25T05:22:49.482Z,76.17
2023-02-25T05:25:22.307Z,76.21
2023-02-25T05:27:54.374Z,76.11
2023-02-25T05:30:26.593Z,76.38
2023-02-25T05:32:58.860Z,76.34
2023-02-25T05:35:32.640Z,76.14
2023-02-25T05:38:04.659Z,76.27
2023-02-25T05:40:37.288Z,76.15
2023-02-25T05:43:10.094Z,76.03
2023-02-25T05:45:42.366Z,76.02
2023-02-25T05:48:14.536Z,75.91
2023-02-25T05:50:47.215Z,75.98
2023-02-25T05:53:20.150Z,75.65
2023-02-25T05:55:52.292Z,76.16
2023-02-25T05:58:24.691Z,76.02
2023-02-25T06:00:57.062Z,76.30
2023-02-25T06:03:29.422Z,76.25
2023-02-25T06:06:03.753Z,76.44
2023-02-25T06:08:36.231Z,76.42
2023-02-25T06:11:10.164Z,76.29
2023-02-25T06:13:43.048Z,76.00
2023-02-25T06:16:15.912Z,76.09
2023-02-25T06:18:48.676Z,76.43
2023-02-25T06:21:21.143Z,76.38
2023-02-25T06:23:53.646Z,76.27
2023-02-25T06:26:26.172Z,76.40
2023-02-25T06:28:59.032Z,76.68
2023-02-25T06:31:31.232Z,76.60
2023-02-25T06:34:03.449Z,76.67
2023-02-25T06:36:35.736Z,76.74
2023-02-25T06:39:08.156Z,76.75
2023-02-25T06:41:40.591Z,76.68
2023-02-25T06:44:15.539Z,76.75
2023-02-25T06:46:50.789Z,76.36
2023-02-25T06:49:21.411Z,76.50
2023-02-25T06:51:53.594Z,76.38
2023-02-25T06:54:25.675Z,76.45
2023-02-25T06:56:57.958Z,76.49
2023-02-25T06:59:30.179Z,76.74
2023-02-25T07:02:02.326Z,76.82
2023-02-25T07:04:34.445Z,76.83
2023-02-25T07:07:06.717Z,77.06
2023-02-25T07:09:38.834Z,77.21
2023-02-25T07:12:10.989Z,77.12
2023-02-25T07:14:43.167Z,77.48
2023-02-25T07:17:15.293Z,76.92
2023-02-25T07:19:47.459Z,76.65
2023-02-25T07:22:22.219Z,76.80
2023-02-25T07:24:55.400Z,76.70
2023-02-25T07:27:27.790Z,76.74
2023-02-25T07:30:01.574Z,76.97
2023-02-25T07:32:33.841Z,77.25
2023-02-25T07:35:07.232Z,77.06
2023-02-25T07:37:39.431Z,77.72
2023-02-25T07:40:15.821Z,77.71
2023-02-25T07:42:47.965Z,77.33
2023-02-25T07:45:20.415Z,77.48
2023-02-25T07:47:55.358Z,77.52
2023-02-25T07:50:25.954Z,77.25
2023-02-25T07:52:58.050Z,77.15
2023-02-25T07:55:30.322Z,77.13
2023-02-25T07:58:02.511Z,77.07
2023-02-25T08:00:35.647Z,77.29
2023-02-25T08:03:08.071Z,77.27
2023-02-25T08:05:40.831Z,77.35
2023-02-25T08:08:13.397Z,77.30
2023-02-25T08:10:45.551Z,77.59
2023-02-25T08:13:17.906Z,77.56
2023-02-25T08:15:50.154Z,77.38
2023-02-25T08:18:22.500Z,77.73
2023-02-25T08:20:56.115Z,77.80
2023-02-25T08:23:28.671Z,77.68
2023-02-25T08:26:01.466Z,77.60
2023-02-25T08:28:36.959Z,77.20
2023-02-25T08:31:11.919Z,77.51
2023-02-25T08:33:49.812Z,77.30
2023-02-25T08:36:24.508Z,77.57
2023-02-25T08:38:58.497Z,77.99
2023-02-25T08:41:32.217Z,77.77
2023-02-25T08:44:04.502Z,77.72
2023-02-25T08:46:37.297Z,78.08
2023-02-25T08:49:11.136Z,77.72
2023-02-25T08:51:43.403Z,77.79
2023-02-25T08:54:16.289Z,77.47
2023-02-25T08:56:51.047Z,77.42
2023-02-25T08:59:23.166Z,77.70
2023-02-25T09:01:55.355Z,77.99
2023-02-25T09:04:27.605Z,77.77
2023-02-25T09:06:59.999Z,78.00
2023-02-25T09:09:33.680Z,78.08
2023-02-25T09:12:06.200Z,78.05
2023-02-25T09:14:39.263Z,77.97
2023-02-25T09:17:11.823Z,78.03
2023-02-25T09:19:44.068Z,78.55
2023-02-25T09:22:16.286Z,78.14
2023-02-25T09:24:48.503Z,78.25
2023-02-25T09:27:20.674Z,78.33
2023-02-25T09:29:53.558Z,78.21
2023-02-25T09:32:26.632Z,78.16
2023-02-25T09:35:04.524Z,78.19
2023-02-25T09:37:37.002Z,78.48
2023-02-25T09:40:17.245Z,78.34
2023-02-25T09:43:03.174Z,78.40
2023-02-25T09:45:36.831Z,78.58
2023-02-25T09:48:19.473Z,78.81
2023-02-25T09:50:55.449Z,78.84
2023-02-25T09:53:33.761Z,78.96
2023-02-25T09:56:09.463Z,78.81
2023-02-25T09:58:44.630Z,78.67
2023-02-25T10:01:25.086Z,78.33
2023-02-25T10:04:03.248Z,78.63
2023-02-25T10:06:43.699Z,78.40
2023-02-25T10:09:26.491Z,78.52
2023-02-25T10:12:10.199Z,78.45
2023-02-25T10:15:07.299Z,78.69
2023-02-25T10:17:48.199Z,78.72
2023-02-25T10:20:44.460Z,78.87
2023-02-25T10:23:28.820Z,78.68
2023-02-25T10:26:07.398Z,78.36
2023-02-25T10:28:43.271Z,78.55
2023-02-25T10:31:18.778Z,78.53
2023-02-25T10:33:53.839Z,78.49
2023-02-25T10:36:32.177Z,78.52
2023-02-25T10:39:04.606Z,78.15
2023-02-25T10:41:38.510Z,78.25
2023-02-25T10:44:14.263Z,78.40
2023-02-25T10:46:54.237Z,78.59
2023-02-25T10:49:28.220Z,78.94
2023-02-25T10:52:03.367Z,79.07
2023-02-25T10:54:46.384Z,78.97
2023-02-25T10:57:25.985Z,79.14
2023-02-25T11:00:07.340Z,79.21
2023-02-25T11:02:43.609Z,79.14
2023-02-25T11:05:33.843Z,79.10
2023-02-25T11:08:08.191Z,78.76
2023-02-25T11:10:40.365Z,78.99
2023-02-25T11:13:31.500Z,78.77
2023-02-25T11:16:07.683Z,78.80
2023-02-25T11:18:40.699Z,79.00
2023-02-25T11:21:16.333Z,78.87
2023-02-25T11:23:51.079Z,79.11
2023-02-25T11:26:31.538Z,78.97
2023-02-25T11:29:08.009Z,78.92
2023-02-25T11:31:42.479Z,79.30
2023-02-25T11:34:23.914Z,79.19
2023-02-25T11:36:56.082Z,79.26
2023-02-25T11:39:31.014Z,79.32
2023-02-25T11:42:22.082Z,79.08
2023-02-25T11:45:01.969Z,78.30
2023-02-25T11:47:38.543Z,78.50
2023-02-25T11:50:23.977Z,78.43
2023-02-25T11:53:04.598Z,78.53
2023-02-25T11:55:59.180Z,78.75
2023-02-25T11:58:43.203Z,79.14
2023-02-25T12:01:22.566Z,78.93
2023-02-25T12:04:18.982Z,79.02
2023-02-25T12:07:14.017Z,78.97
2023-02-25T12:10:10.315Z,78.89
2023-02-25T12:13:16.606Z,78.71
2023-02-25T12:16:26.210Z,78.63
2023-02-25T12:19:32.655Z,78.57
2023-02-25T12:22:34.107Z,78.33
2023-02-25T12:25:30.239Z,78.19
2023-02-25T12:28:25.546Z,78.37
2023-02-25T12:31:18.174Z,78.33
2023-02-25T12:34:04.632Z,78.77
2023-02-25T12:36:55.891Z,78.82
2023-02-25T12:39:48.223Z,78.70
2023-02-25T12:42:46.136Z,78.77
2023-02-25T12:45:41.426Z,78.52
2023-02-25T12:48:44.729Z,78.56
2023-02-25T12:51:37.929Z,78.71
2023-02-25T12:54:29.264Z,78.62
2023-02-25T12:57:29.723Z,78.65
2023-02-25T13:00:22.629Z,78.18
2023-02-25T13:03:21.396Z,78.27
2023-02-25T13:06:20.898Z,78.08
2023-02-25T13:09:08.514Z,78.20
2023-02-25T13:12:11.074Z,78.29
2023-02-25T13:14:58.055Z,78.27
2023-02-25T13:17:58.950Z,78.59
2023-02-25T13:20:51.750Z,78.77
2023-02-25T13:23:47.443Z,78.56
2023-02-25T13:26:28.036Z,78.39
2023-02-25T13:29:24.453Z,78.43
2023-02-25T13:32:08.296Z,78.51
2023-02-25T13:34:48.535Z,78.40
2023-02-25T13:37:42.860Z,78.44
2023-02-25T13:40:50.951Z,78.04
2023-02-25T13:43:48.651Z,77.88
2023-02-25T13:46:50.889Z,78.16
2023-02-25T13:49:52.571Z,78.02
2023-02-25T13:52:29.797Z,78.13
2023-02-25T13:55:36.049Z,78.35
2023-02-25T13:58:37.442Z,78.13
2023-02-25T14:01:31.348Z,78.39
2023-02-25T14:04:41.038Z,78.22
2023-02-25T14:07:50.281Z,78.56
2023-02-25T14:10:43.321Z,78.27
2023-02-25T14:13:43.712Z,78.32
2023-02-25T14:16:41.853Z,77.89
2023-02-25T14:19:26.442Z,77.94
2023-02-25T14:22:31.352Z,77.85
2023-02-25T14:25:17.864Z,77.65
2023-02-25T14:28:01.435Z,77.79
2023-02-25T14:30:44.780Z,77.75
2023-02-25T14:33:37.120Z,78.03
2023-02-25T14:36:34.990Z,77.67
2023-02-25T14:39:31.873Z,77.86
2023-02-25T14:42:27.193Z,77.81
2023-02-25T14:45:06.409Z,77.98
2023-02-25T14:47:46.740Z,78.04
2023-02-25T14:50:25.456Z,77.71
2023-02-25T14:53:46.470Z,77.58
2023-02-25T14:56:48.967Z,77.71
2023-02-25T14:59:48.281Z,77.09
2023-02-25T15:02:42.366Z,77.13
2023-02-25T15:05:39.207Z,77.08
2023-02-25T15:08:26.278Z,77.07
2023-02-25T15:11:26.965Z,77.38
2023-02-25T15:14:35.893Z,77.23
2023-02-25T15:21:00.645Z,77.21
2023-02-25T15:24:46.459Z,76.89
2023-02-25T15:27:48.520Z,77.17
2023-02-25T15:30:24.798Z,77.12
2023-02-25T15:33:25.891Z,76.99
2023-02-25T15:36:03.089Z,76.55
2023-02-25T15:38:50.288Z,76.58
2023-02-25T15:41:46.453Z,76.86
2023-02-25T15:44:41.805Z,77.02
2023-02-25T15:47:31.964Z,76.62
2023-02-25T15:50:05.569Z,76.85
2023-02-25T15:52:59.442Z,77.07
2023-02-25T15:55:44.509Z,77.05
2023-02-25T15:58:46.578Z,76.87
2023-02-25T16:01:39.590Z,77.09
2023-02-25T16:04:45.637Z,77.09
2023-02-25T16:07:21.171Z,77.11
2023-02-25T16:09:59.225Z,76.97
2023-02-25T16:12:31.831Z,76.82
2023-02-25T16:15:05.255Z,76.69
2023-02-25T16:17:38.544Z,76.77
2023-02-25T16:20:21.448Z,76.65
2023-02-25T16:22:58.040Z,76.84
2023-02-25T16:25:38.242Z,76.77
2023-02-25T16:28:20.944Z,76.72
2023-02-25T16:31:01.725Z,76.88
2023-02-25T16:33:43.189Z,76.98
2023-02-25T16:36:22.885Z,76.88
2023-02-25T16:38:59.265Z,76.91
2023-02-25T16:41:38.056Z,76.77
2023-02-25T16:44:18.231Z,76.65
2023-02-25T16:46:54.883Z,76.60
2023-02-25T16:49:32.773Z,76.23
2023-02-25T16:52:05.590Z,76.38
2023-02-25T16:54:41.087Z,76.27
2023-02-25T16:57:22.578Z,76.34
2023-02-25T17:00:13.795Z,76.30
2023-02-25T17:02:51.340Z,76.30
2023-02-25T17:05:33.570Z,76.63
2023-02-25T17:08:15.281Z,76.44
2023-02-25T17:10:50.859Z,76.73
2023-02-25T17:13:27.331Z,76.80
2023-02-25T17:16:00.876Z,76.79
2023-02-25T17:18:35.914Z,76.81
2023-02-25T17:21:14.858Z,76.72
2023-02-25T17:23:47.823Z,76.24
2023-02-25T17:26:21.579Z,76.40
2023-02-25T17:28:56.722Z,76.29
2023-02-25T17:31:28.318Z,76.10
2023-02-25T17:34:03.671Z,75.70
2023-02-25T17:36:39.705Z,76.17
2023-02-25T17:39:16.711Z,75.97
2023-02-25T17:41:49.991Z,76.24
2023-02-25T17:44:46.723Z,76.43
2023-02-25T17:47:24.997Z,76.48
2023-02-25T17:49:59.148Z,76.43
2023-02-25T17:52:33.702Z,76.37
2023-02-25T17:55:22.149Z,76.01
2023-02-25T17:57:58.954Z,76.02
2023-02-25T18:00:33.344Z,75.92
2023-02-25T18:03:20.238Z,75.83
2023-02-25T18:05:54.582Z,76.02
2023-02-25T18:08:27.745Z,75.85
2023-02-25T18:11:07.200Z,75.92
2023-02-25T18:13:39.894Z,75.91
2023-02-25T18:16:28.736Z,76.06
2023-02-25T18:19:01.544Z,76.04
2023-02-25T18:21:40.440Z,75.83
2023-02-25T18:24:25.579Z,75.99
2023-02-25T18:27:20.434Z,76.06
2023-02-25T18:29:52.808Z,75.78
2023-02-25T18:32:25.173Z,76.17
2023-02-25T18:34:57.399Z,76.10
2023-02-25T18:37:32.891Z,75.97
2023-02-25T18:40:05.660Z,75.57
2023-02-25T18:42:37.832Z,75.56
2023-02-25T18:45:21.155Z,75.13
2023-02-25T18:47:54.384Z,75.62
2023-02-25T18:50:29.906Z,75.55
2023-02-25T18:53:02.609Z,75.59
2023-02-25T18:55:36.009Z,75.81
2023-02-25T18:58:12.501Z,75.97
2023-02-25T19:00:47.154Z,75.93
2023-02-25T19:03:25.108Z,75.80
2023-02-25T19:05:57.512Z,75.75
2023-02-25T19:08:30.140Z,75.79
2023-02-25T19:11:02.467Z,75.86
2023-02-25T19:13:38.154Z,75.52
2023-02-25T19:16:11.794Z,75.65
2023-02-25T19:18:44.018Z,75.44
2023-02-25T19:21:18.914Z,75.42
2023-02-25T19:23:53.959Z,75.34
2023-02-25T19:26:26.567Z,75.31
2023-02-25T19:28:58.985Z,75.27
2023-02-25T19:31:31.233Z,75.36
2023-02-25T19:34:03.655Z,75.32
2023-02-25T19:36:35.900Z,75.61
2023-02-25T19:39:08.151Z,75.54
2023-02-25T19:41:40.596Z,75.59
2023-02-25T19:44:12.969Z,75.39
2023-02-25T19:46:45.365Z,75.46
2023-02-25T19:49:17.660Z,75.36
2023-02-25T19:51:49.900Z,75.36
2023-02-25T19:54:25.071Z,75.52
2023-02-25T19:56:58.673Z,75.47
2023-02-25T19:59:32.142Z,75.55
2023-02-25T20:02:04.413Z,75.48
2023-02-25T20:04:36.932Z,75.28
2023-02-25T20:07:09.590Z,75.30
2023-02-25T20:09:42.019Z,75.19
2023-02-25T20:12:14.181Z,75.02
2023-02-25T20:14:46.328Z,75.25
2023-02-25T20:17:18.622Z,75.29
2023-02-25T20:19:50.838Z,75.18
2023-02-25T20:22:23.922Z,75.32
2023-02-25T20:24:56.102Z,75.38
2023-02-25T20:27:29.528Z,74.93
2023-02-25T20:30:01.913Z,74.79
2023-02-25T20:32:34.221Z,74.97
2023-02-25T20:35:08.027Z,75.13
2023-02-25T20:37:44.741Z,75.01
2023-02-25T20:40:17.888Z,74.90
2023-02-25T20:42:50.713Z,74.75
2023-02-25T20:45:24.081Z,74.63
2023-02-25T20:47:56.891Z,74.30
2023-02-25T20:50:31.359Z,74.24
2023-02-25T20:53:04.010Z,74.84
2023-02-25T20:55:36.110Z,75.09
2023-02-25T20:58:08.341Z,74.70
2023-02-25T21:00:40.413Z,75.11
2023-02-25T21:03:12.704Z,75.12
2023-02-25T21:05:44.974Z,75.00
2023-02-25T21:08:17.221Z,75.06
2023-02-25T21:10:50.038Z,74.89
2023-02-25T21:13:22.251Z,75.12
2023-02-25T21:15:58.761Z,74.74
2023-02-25T21:18:31.431Z,74.52
2023-02-25T21:21:07.702Z,74.34
2023-02-25T21:23:40.634Z,74.40
2023-02-25T21:26:14.815Z,74.51
2023-02-25T21:28:47.185Z,74.43
2023-02-25T21:31:19.628Z,74.43
2023-02-25T21:33:51.831Z,74.79
2023-02-25T21:36:24.226Z,74.99
2023-02-25T21:38:56.859Z,74.66
2023-02-25T21:41:29.132Z,74.97
2023-02-25T21:44:01.383Z,74.72
2023-02-25T21:46:33.637Z,74.73
2023-02-25T21:49:05.834Z,74.79
2023-02-25T21:51:40.353Z,74.81
2023-02-25T21:54:13.422Z,74.84
2023-02-25T21:56:45.853Z,74.78
2023-02-25T21:59:18.816Z,74.75
2023-02-25T22:01:51.139Z,74.36
2023-02-25T22:04:23.414Z,74.53
2023-02-25T22:06:55.804Z,74.38
2023-02-25T22:09:28.127Z,74.25
2023-02-25T22:12:00.374Z,74.27
2023-02-25T22:14:32.809Z,74.41
2023-02-25T22:17:05.046Z,74.81
2023-02-25T22:19:37.339Z,74.79
2023-02-25T22:22:09.690Z,74.81
2023-02-25T22:24:41.955Z,74.84
2023-02-25T22:27:14.330Z,74.85
2023-02-25T22:29:46.524Z,74.87
2023-02-25T22:32:18.917Z,74.79
2023-02-25T22:34:51.152Z,74.51
2023-02-25T22:37:23.287Z,74.31
2023-02-25T22:39:55.433Z,74.33
2023-02-25T22:42:27.865Z,74.22
2023-02-25T22:45:00.061Z,74.64
2023-02-25T22:47:32.244Z,74.33
2023-02-25T22:50:04.760Z,74.07
2023-02-25T22:52:37.066Z,73.79
2023-02-25T22:55:11.916Z,73.86
2023-02-25T22:57:44.240Z,73.99
2023-02-25T23:00:19.699Z,74.12
2023-02-25T23:02:50.458Z,74.65
2023-02-25T23:05:23.016Z,74.69
2023-02-25T23:07:55.197Z,74.64
2023-02-25T23:10:28.539Z,74.67
2023-02-25T23:13:02.332Z,74.40
2023-02-25T23:15:34.950Z,74.46
2023-02-25T23:18:09.964Z,74.48
2023-02-25T23:20:41.033Z,74.18
2023-02-25T23:23:17.762Z,74.20
2023-02-25T23:25:54.767Z,74.13
2023-02-25T23:28:27.674Z,74.06
2023-02-25T23:31:00.152Z,74.10
2023-02-25T23:33:33.134Z,74.00
2023-02-25T23:36:08.267Z,73.99
2023-02-25T23:38:40.492Z,73.74
2023-02-25T23:41:12.758Z,73.71
2023-02-25T23:43:44.954Z,73.83
2023-02-25T23:46:17.133Z,73.77
2023-02-25T23:48:49.837Z,73.92
2023-02-25T23:51:22.472Z,73.98
2023-02-25T23:53:56.806Z,74.04
2023-02-25T23:56:30.917Z,74.19
2023-02-25T23:59:03.309Z,73.91
